createdAt,value
2023-05-13T00:00:43.060Z,102566.28
2023-05-13T00:01:44.861Z,102565.44
2023-05-13T00:02:46.705Z,102567.13
2023-05-13T00:03:48.612Z,102567.25
2023-05-13T00:04:50.607Z,102563.72
2023-05-13T00:05:52.478Z,102559.16
2023-05-13T00:06:54.397Z,102557.41
2023-05-13T00:07:56.426Z,102559.28
2023-05-13T00:08:58.997Z,102562.09
2023-05-13T00:10:00.853Z,102561.13
2023-05-13T00:11:02.725Z,102561.13
2023-05-13T00:12:04.853Z,102559.41
2023-05-13T00:13:06.771Z,102565.69
2023-05-13T00:14:10.848Z,102564.09
2023-05-13T00:15:12.722Z,102560.41
2023-05-13T00:16:14.762Z,102564.97
2023-05-13T00:17:16.870Z,102562.41
2023-05-13T00:18:18.701Z,102563.09
2023-05-13T00:19:20.739Z,102557.00
2023-05-13T00:20:22.893Z,102559.69
2023-05-13T00:21:24.927Z,102563.38
2023-05-13T00:22:26.712Z,102561.69
2023-05-13T00:23:28.476Z,102564.25
2023-05-13T00:24:30.244Z,102573.34
2023-05-13T00:25:32.030Z,102569.78
2023-05-13T00:26:33.927Z,102570.78
2023-05-13T00:27:35.817Z,102562.69
2023-05-13T00:28:37.644Z,102565.38
2023-05-13T00:29:39.418Z,102569.06
2023-05-13T00:30:43.829Z,102573.63
2023-05-13T00:31:45.897Z,102567.25
2023-05-13T00:32:47.954Z,102578.03
2023-05-13T00:33:49.843Z,102565.66
2023-05-13T00:34:51.635Z,102546.31
2023-05-13T00:35:53.412Z,102575.47
2023-05-13T00:36:55.225Z,102574.75
2023-05-13T00:37:56.992Z,102573.06
2023-05-13T00:38:58.767Z,102573.06
2023-05-13T00:40:00.666Z,102579.31
2023-05-13T00:41:03.830Z,102574.06
2023-05-13T00:42:06.035Z,102580.16
2023-05-13T00:43:08.009Z,102576.75
2023-05-13T00:44:09.827Z,102579.44
2023-05-13T00:45:11.641Z,102573.50
2023-05-13T00:46:14.970Z,102575.03
2023-05-13T00:47:17.355Z,102580.31
2023-05-13T00:48:19.221Z,102587.56
2023-05-13T00:49:21.027Z,102580.44
2023-05-13T00:50:23.451Z,102582.44
2023-05-13T00:51:25.953Z,102586.84
2023-05-13T00:52:27.845Z,102586.00
2023-05-13T00:53:32.460Z,102587.84
2023-05-13T00:54:34.407Z,102591.25
2023-05-13T00:55:36.274Z,102589.53
2023-05-13T00:56:39.187Z,102589.69
2023-05-13T00:57:41.023Z,102587.84
2023-05-13T00:58:42.804Z,102587.84
2023-05-13T00:59:44.608Z,102583.44
2023-05-13T01:00:52.038Z,102583.44
2023-05-13T01:02:08.840Z,102576.63
2023-05-13T01:03:15.881Z,102576.75
2023-05-13T01:04:26.747Z,102584.72
2023-05-13T01:05:48.807Z,102579.03
2023-05-13T01:07:13.903Z,102571.38
2023-05-13T01:08:32.936Z,102583.44
2023-05-13T01:10:17.124Z,102582.72
2023-05-13T01:11:27.664Z,102579.31
2023-05-13T01:12:35.811Z,102576.47
2023-05-13T01:13:43.139Z,102577.47
2023-05-13T01:14:58.123Z,102579.31
2023-05-13T01:16:12.236Z,102578.47
2023-05-13T01:17:24.536Z,102575.91
2023-05-13T01:18:34.496Z,102580.44
2023-05-13T01:19:44.566Z,102578.75
2023-05-13T01:20:46.948Z,102584.16
2023-05-13T01:21:52.948Z,102573.59
2023-05-13T01:22:54.831Z,102589.13
2023-05-13T01:23:56.866Z,102583.84
2023-05-13T01:24:58.821Z,102592.09
2023-05-13T01:26:00.601Z,102594.09
2023-05-13T01:27:03.207Z,102583.41
2023-05-13T01:28:06.909Z,102584.28
2023-05-13T01:29:09.749Z,102584.28
2023-05-13T01:30:12.338Z,102583.28
2023-05-13T01:31:15.626Z,102577.16
2023-05-13T01:32:19.003Z,102565.94
2023-05-13T01:33:21.017Z,102580.72
2023-05-13T01:34:25.245Z,102575.47
2023-05-13T01:35:28.495Z,102582.56
2023-05-13T01:36:30.896Z,102571.78
2023-05-13T01:37:34.028Z,102569.06
2023-05-13T01:38:37.901Z,102562.25
2023-05-13T01:39:40.976Z,102573.75
2023-05-13T01:40:47.431Z,102569.91
2023-05-13T01:41:49.450Z,102568.34
2023-05-13T01:42:52.108Z,102572.75
2023-05-13T01:43:53.936Z,102570.19
2023-05-13T01:44:55.754Z,102574.88
2023-05-13T01:46:00.582Z,102575.75
2023-05-13T01:47:02.557Z,102580.97
2023-05-13T01:48:05.425Z,102579.28
2023-05-13T01:49:17.783Z,102579.88
2023-05-13T01:50:21.144Z,102579.16
2023-05-13T01:51:23.247Z,102574.75
2023-05-13T01:52:25.484Z,102573.03
2023-05-13T01:53:28.420Z,102573.16
2023-05-13T01:54:30.883Z,102572.16
2023-05-13T01:55:38.476Z,102568.63
2023-05-13T01:56:40.895Z,102569.47
2023-05-13T01:57:42.706Z,102565.06
2023-05-13T01:58:44.621Z,102564.22
2023-05-13T01:59:46.482Z,102549.00
2023-05-13T02:00:49.467Z,102570.63
2023-05-13T02:01:53.173Z,102567.91
2023-05-13T02:02:55.084Z,102563.91
2023-05-13T02:04:00.100Z,102563.50
2023-05-13T02:05:02.172Z,102564.34
2023-05-13T02:06:05.542Z,102568.03
2023-05-13T02:07:07.371Z,102559.38
2023-05-13T02:08:09.648Z,102568.91
2023-05-13T02:09:13.439Z,102569.91
2023-05-13T02:10:16.266Z,102571.63
2023-05-13T02:11:18.103Z,102563.63
2023-05-13T02:12:19.881Z,102573.44
2023-05-13T02:13:21.773Z,102570.91
2023-05-13T02:14:23.540Z,102570.91
2023-05-13T02:15:25.316Z,102562.81
2023-05-13T02:16:27.113Z,102567.31
2023-05-13T02:17:29.245Z,102571.91
2023-05-13T02:18:31.510Z,102553.41
2023-05-13T02:19:33.411Z,102571.91
2023-05-13T02:20:35.202Z,102555.69
2023-05-13T02:21:37.417Z,102560.22
2023-05-13T02:22:42.145Z,102557.69
2023-05-13T02:23:43.986Z,102564.78
2023-05-13T02:24:45.805Z,102558.50
2023-05-13T02:25:47.648Z,102563.09
2023-05-13T02:26:49.602Z,102558.50
2023-05-13T02:27:51.546Z,102557.69
2023-05-13T02:28:53.443Z,102557.69
2023-05-13T02:29:55.289Z,102555.81
2023-05-13T02:30:57.264Z,102562.22
2023-05-13T02:31:59.272Z,102549.28
2023-05-13T02:33:01.653Z,102559.50
2023-05-13T02:34:04.007Z,102561.34
2023-05-13T02:35:06.300Z,102562.22
2023-05-13T02:36:08.500Z,102555.09
2023-05-13T02:37:12.029Z,102559.50
2023-05-13T02:38:21.820Z,102559.38
2023-05-13T02:39:23.654Z,102563.09
2023-05-13T02:40:26.001Z,102552.28
2023-05-13T02:41:28.803Z,102555.94
2023-05-13T02:42:30.766Z,102564.03
2023-05-13T02:43:32.760Z,102561.34
2023-05-13T02:44:38.592Z,102553.25
2023-05-13T02:45:41.389Z,102556.94
2023-05-13T02:46:44.291Z,102561.34
2023-05-13T02:47:46.489Z,102558.78
2023-05-13T02:48:48.440Z,102547.69
2023-05-13T02:49:50.268Z,102564.19
2023-05-13T02:50:52.076Z,102557.94
2023-05-13T02:51:54.410Z,102555.22
2023-05-13T02:53:02.008Z,102556.09
2023-05-13T02:54:05.439Z,102554.22
2023-05-13T02:55:08.444Z,102555.50
2023-05-13T02:56:11.571Z,102560.63
2023-05-13T02:57:13.416Z,102558.91
2023-05-13T02:58:17.290Z,102560.91
2023-05-13T02:59:20.027Z,102558.91
2023-05-13T03:00:22.137Z,102554.50
2023-05-13T03:01:26.634Z,102560.78
2023-05-13T03:02:28.632Z,102560.78
2023-05-13T03:03:30.734Z,102563.59
2023-05-13T03:04:32.665Z,102558.22
2023-05-13T03:05:34.512Z,102565.31
2023-05-13T03:06:36.375Z,102557.38
2023-05-13T03:07:38.175Z,102559.19
2023-05-13T03:08:39.963Z,102561.06
2023-05-13T03:09:42.451Z,102558.47
2023-05-13T03:10:44.290Z,102558.47
2023-05-13T03:11:47.473Z,102551.66
2023-05-13T03:12:49.829Z,102558.38
2023-05-13T03:13:51.675Z,102563.75
2023-05-13T03:14:53.482Z,102557.66
2023-05-13T03:15:55.472Z,102561.19
2023-05-13T03:16:57.510Z,102558.75
2023-05-13T03:17:59.371Z,102569.28
2023-05-13T03:19:01.374Z,102561.34
2023-05-13T03:20:03.582Z,102564.88
2023-05-13T03:21:07.221Z,102526.06
2023-05-13T03:22:09.781Z,102565.88
2023-05-13T03:23:11.612Z,102567.56
2023-05-13T03:24:13.429Z,102568.56
2023-05-13T03:25:15.630Z,102572.25
2023-05-13T03:26:22.977Z,102567.56
2023-05-13T03:27:25.004Z,102565.88
2023-05-13T03:28:26.853Z,102570.44
2023-05-13T03:29:28.609Z,102569.56
2023-05-13T03:30:30.500Z,102569.56
2023-05-13T03:31:38.553Z,102571.28
2023-05-13T03:32:41.220Z,102567.84
2023-05-13T03:33:43.788Z,102565.16
2023-05-13T03:34:47.218Z,102567.84
2023-05-13T03:35:51.193Z,102562.47
2023-05-13T03:36:58.360Z,102568.72
2023-05-13T03:38:02.667Z,102566.88
2023-05-13T03:39:04.876Z,102570.56
2023-05-13T03:40:07.410Z,102576.94
2023-05-13T03:41:10.504Z,102574.25
2023-05-13T03:42:12.497Z,102577.81
2023-05-13T03:43:14.350Z,102572.53
2023-05-13T03:44:19.581Z,102575.25
2023-05-13T03:45:21.727Z,102575.25
2023-05-13T03:46:29.157Z,102576.94
2023-05-13T03:47:31.474Z,102576.94
2023-05-13T03:48:36.797Z,102576.94
2023-05-13T03:49:39.818Z,102576.09
2023-05-13T03:50:41.830Z,102575.25
2023-05-13T03:51:43.602Z,102577.22
2023-05-13T03:52:47.350Z,102577.22
2023-05-13T03:53:50.848Z,102562.41
2023-05-13T03:54:53.139Z,102571.81
2023-05-13T03:55:54.975Z,102575.50
2023-05-13T03:56:56.845Z,102576.38
2023-05-13T03:57:59.089Z,102572.97
2023-05-13T03:59:00.984Z,102582.78
2023-05-13T04:00:03.559Z,102578.22
2023-05-13T04:01:16.321Z,102572.53
2023-05-13T04:02:18.819Z,102574.81
2023-05-13T04:03:21.005Z,102561.84
2023-05-13T04:04:23.185Z,102580.91
2023-05-13T04:05:25.928Z,102578.22
2023-05-13T04:06:27.810Z,102564.56
2023-05-13T04:07:29.588Z,102580.91
2023-05-13T04:08:31.344Z,102577.50
2023-05-13T04:09:33.148Z,102579.38
2023-05-13T04:10:34.922Z,102578.50
2023-05-13T04:11:36.737Z,102592.69
2023-05-13T04:12:40.346Z,102582.91
2023-05-13T04:13:43.892Z,102594.56
2023-05-13T04:14:45.745Z,102584.59
2023-05-13T04:15:48.351Z,102585.59
2023-05-13T04:16:50.250Z,102595.41
2023-05-13T04:17:52.697Z,102598.09
2023-05-13T04:18:54.830Z,102596.41
2023-05-13T04:19:56.652Z,102592.09
2023-05-13T04:20:58.464Z,102598.09
2023-05-13T04:22:00.425Z,102604.50
2023-05-13T04:23:02.248Z,102611.59
2023-05-13T04:24:04.679Z,102606.19
2023-05-13T04:25:06.662Z,102610.75
2023-05-13T04:26:09.411Z,102610.75
2023-05-13T04:27:11.174Z,102608.91
2023-05-13T04:28:13.154Z,102611.59
2023-05-13T04:29:18.464Z,102608.78
2023-05-13T04:30:20.830Z,102614.19
2023-05-13T04:31:23.010Z,102607.06
2023-05-13T04:32:24.942Z,102608.91
2023-05-13T04:33:29.425Z,102610.59
2023-05-13T04:34:31.312Z,102616.00
2023-05-13T04:35:33.134Z,102617.88
2023-05-13T04:36:36.685Z,102614.19
2023-05-13T04:37:38.748Z,102612.47
2023-05-13T04:38:42.969Z,102616.88
2023-05-13T04:39:48.125Z,102607.19
2023-05-13T04:40:52.573Z,102619.56
2023-05-13T04:42:04.634Z,102608.78
2023-05-13T04:43:07.628Z,102622.84
2023-05-13T04:44:16.804Z,102610.22
2023-05-13T04:45:18.582Z,102613.03
2023-05-13T04:46:22.527Z,102616.00
2023-05-13T04:47:26.440Z,102628.38
2023-05-13T04:48:28.770Z,102624.09
2023-05-13T04:49:32.695Z,102612.97
2023-05-13T04:50:35.949Z,102631.22
2023-05-13T04:51:37.929Z,102628.66
2023-05-13T04:52:42.898Z,102626.97
2023-05-13T04:53:45.682Z,102633.19
2023-05-13T04:54:48.213Z,102627.78
2023-05-13T04:55:50.581Z,102602.41
2023-05-13T04:56:52.410Z,102631.47
2023-05-13T04:57:54.256Z,102631.47
2023-05-13T04:58:56.177Z,102629.78
2023-05-13T04:59:58.340Z,102624.38
2023-05-13T05:01:00.229Z,102627.06
2023-05-13T05:02:02.898Z,102629.78
2023-05-13T05:03:05.594Z,102632.47
2023-05-13T05:04:07.475Z,102629.91
2023-05-13T05:05:10.863Z,102631.47
2023-05-13T05:06:13.025Z,102631.63
2023-05-13T05:07:16.045Z,102632.47
2023-05-13T05:08:17.916Z,102628.06
2023-05-13T05:09:21.782Z,102629.78
2023-05-13T05:10:26.040Z,102629.78
2023-05-13T05:11:32.541Z,102636.88
2023-05-13T05:12:34.335Z,102632.47
2023-05-13T05:13:36.277Z,102633.34
2023-05-13T05:14:38.379Z,102633.47
2023-05-13T05:15:42.622Z,102636.88
2023-05-13T05:16:46.232Z,102635.19
2023-05-13T05:17:49.198Z,102637.88
2023-05-13T05:18:51.509Z,102628.94
2023-05-13T05:19:53.513Z,102635.19
2023-05-13T05:20:55.384Z,102632.47
2023-05-13T05:21:57.260Z,102627.19
2023-05-13T05:22:59.763Z,102629.78
2023-05-13T05:24:03.574Z,102629.78
2023-05-13T05:25:05.797Z,102628.94
2023-05-13T05:26:11.818Z,102630.88
2023-05-13T05:27:15.528Z,102638.59
2023-05-13T05:28:17.462Z,102632.34
2023-05-13T05:29:20.701Z,102631.47
2023-05-13T05:30:22.807Z,102636.88
2023-05-13T05:31:33.007Z,102634.91
2023-05-13T05:32:37.715Z,102638.59
2023-05-13T05:33:41.291Z,102638.59
2023-05-13T05:34:43.264Z,102640.44
2023-05-13T05:35:45.485Z,102632.47
2023-05-13T05:36:49.946Z,102633.19
2023-05-13T05:37:52.585Z,102634.19
2023-05-13T05:38:54.968Z,102631.03
2023-05-13T05:40:00.875Z,102644.00
2023-05-13T05:41:03.225Z,102642.28
2023-05-13T05:42:05.435Z,102644.16
2023-05-13T05:43:08.088Z,102643.28
2023-05-13T05:44:13.430Z,102645.97
2023-05-13T05:45:16.070Z,102642.28
2023-05-13T05:46:18.301Z,102641.44
2023-05-13T05:47:20.155Z,102643.28
2023-05-13T05:48:22.125Z,102651.38
2023-05-13T05:49:24.317Z,102634.72
2023-05-13T05:50:26.396Z,102645.97
2023-05-13T05:51:28.537Z,102646.84
2023-05-13T05:52:30.318Z,102644.25
2023-05-13T05:53:37.615Z,102660.47
2023-05-13T05:54:40.866Z,102650.25
2023-05-13T05:55:42.719Z,102658.47
2023-05-13T05:56:44.530Z,102649.53
2023-05-13T05:57:46.468Z,102656.88
2023-05-13T05:58:48.332Z,102651.38
2023-05-13T05:59:51.608Z,102645.97
2023-05-13T06:00:54.837Z,102651.38
2023-05-13T06:01:56.625Z,102631.56
2023-05-13T06:02:58.847Z,102643.28
2023-05-13T06:04:01.222Z,102651.38
2023-05-13T06:05:03.120Z,102640.97
2023-05-13T06:06:05.437Z,102655.94
2023-05-13T06:07:08.936Z,102653.09
2023-05-13T06:08:10.847Z,102648.56
2023-05-13T06:09:12.832Z,102646.69
2023-05-13T06:10:14.853Z,102648.56
2023-05-13T06:11:17.473Z,102610.50
2023-05-13T06:12:19.273Z,102649.13
2023-05-13T06:13:21.160Z,102655.22
2023-05-13T06:14:22.963Z,102650.69
2023-05-13T06:15:24.792Z,102643.31
2023-05-13T06:16:26.754Z,102640.03
2023-05-13T06:17:28.615Z,102650.00
2023-05-13T06:18:30.593Z,102647.03
2023-05-13T06:19:32.456Z,102642.34
2023-05-13T06:20:34.321Z,102646.63
2023-05-13T06:21:36.165Z,102645.50
2023-05-13T06:22:38.157Z,102641.53
2023-05-13T06:23:40.567Z,102636.84
2023-05-13T06:24:44.662Z,102647.38
2023-05-13T06:25:48.388Z,102645.97
2023-05-13T06:26:50.211Z,102636.75
2023-05-13T06:27:52.004Z,102640.16
2023-05-13T06:28:55.988Z,102646.84
2023-05-13T06:29:57.921Z,102641.31
2023-05-13T06:30:59.812Z,102641.91
2023-05-13T06:32:01.709Z,102647.00
2023-05-13T06:33:03.764Z,102647.56
2023-05-13T06:34:05.701Z,102648.31
2023-05-13T06:35:08.417Z,102636.75
2023-05-13T06:36:11.270Z,102645.91
2023-05-13T06:37:13.958Z,102650.22
2023-05-13T06:38:19.238Z,102645.63
2023-05-13T06:39:22.726Z,102639.53
2023-05-13T06:40:24.870Z,102642.09
2023-05-13T06:41:27.340Z,102639.97
2023-05-13T06:42:39.729Z,102644.09
2023-05-13T06:43:48.961Z,102634.00
2023-05-13T06:44:56.473Z,102644.22
2023-05-13T06:46:02.908Z,102652.22
2023-05-13T06:47:05.632Z,102648.50
2023-05-13T06:48:07.570Z,102643.09
2023-05-13T06:49:09.503Z,102643.81
2023-05-13T06:50:11.499Z,102648.06
2023-05-13T06:51:13.341Z,102647.06
2023-05-13T06:52:15.138Z,102643.41
2023-05-13T06:53:17.098Z,102642.41
2023-05-13T06:54:18.908Z,102643.13
2023-05-13T06:55:21.704Z,102646.53
2023-05-13T06:56:23.733Z,102646.38
2023-05-13T06:57:38.791Z,102639.97
2023-05-13T06:58:44.011Z,102643.81
2023-05-13T06:59:45.794Z,102644.81
2023-05-13T07:00:48.139Z,102640.25
2023-05-13T07:01:49.946Z,102639.38
2023-05-13T07:02:51.834Z,102640.25
2023-05-13T07:03:53.818Z,102640.25
2023-05-13T07:04:55.687Z,102641.09
2023-05-13T07:05:57.472Z,102640.97
2023-05-13T07:06:59.365Z,102643.50
2023-05-13T07:08:06.574Z,102633.97
2023-05-13T07:09:09.817Z,102646.78
2023-05-13T07:10:12.064Z,102647.66
2023-05-13T07:11:13.892Z,102638.69
2023-05-13T07:12:15.974Z,102646.78
2023-05-13T07:13:19.039Z,102643.09
2023-05-13T07:14:21.490Z,102649.38
2023-05-13T07:15:24.337Z,102641.09
2023-05-13T07:16:26.301Z,102649.22
2023-05-13T07:17:28.560Z,102653.78
2023-05-13T07:18:30.546Z,102654.63
2023-05-13T07:19:32.378Z,102656.31
2023-05-13T07:20:34.186Z,102650.09
2023-05-13T07:21:36.404Z,102651.91
2023-05-13T07:22:38.208Z,102655.63
2023-05-13T07:23:40.039Z,102647.38
2023-05-13T07:24:41.939Z,102653.63
2023-05-13T07:25:43.775Z,102659.03
2023-05-13T07:26:45.585Z,102639.81
2023-05-13T07:27:47.960Z,102649.09
2023-05-13T07:28:49.779Z,102653.63
2023-05-13T07:29:51.541Z,102629.16
2023-05-13T07:30:53.640Z,102646.38
2023-05-13T07:31:55.612Z,102643.66
2023-05-13T07:32:57.427Z,102652.66
2023-05-13T07:33:59.805Z,102652.66
2023-05-13T07:35:01.732Z,102653.63
2023-05-13T07:36:03.805Z,102649.81
2023-05-13T07:37:05.696Z,102646.25
2023-05-13T07:38:11.155Z,102642.81
2023-05-13T07:39:13.154Z,102641.72
2023-05-13T07:40:15.381Z,102644.53
2023-05-13T07:41:17.157Z,102640.84
2023-05-13T07:42:19.244Z,102650.81
2023-05-13T07:43:24.004Z,102641.84
2023-05-13T07:44:26.622Z,102642.53
2023-05-13T07:45:29.101Z,102637.81
2023-05-13T07:46:30.963Z,102649.09
2023-05-13T07:47:33.469Z,102648.13
2023-05-13T07:48:35.362Z,102653.53
2023-05-13T07:49:37.142Z,102641.09
2023-05-13T07:50:39.290Z,102655.38
2023-05-13T07:51:41.355Z,102652.66
2023-05-13T07:52:43.667Z,102649.09
2023-05-13T07:53:47.120Z,102657.06
2023-05-13T07:54:49.384Z,102653.53
2023-05-13T07:55:51.205Z,102658.78
2023-05-13T07:56:52.975Z,102658.78
2023-05-13T07:57:54.771Z,102662.47
2023-05-13T07:58:57.145Z,102666.88
2023-05-13T07:59:59.078Z,102633.16
2023-05-13T08:01:00.948Z,102658.78
2023-05-13T08:02:02.909Z,102664.19
2023-05-13T08:03:05.138Z,102653.53
2023-05-13T08:04:07.287Z,102662.34
2023-05-13T08:05:09.710Z,102651.91
2023-05-13T08:06:11.599Z,102655.06
2023-05-13T08:07:13.473Z,102660.47
2023-05-13T08:08:15.396Z,102658.66
2023-05-13T08:09:17.232Z,102660.47
2023-05-13T08:10:19.060Z,102664.88
2023-05-13T08:11:21.787Z,102660.47
2023-05-13T08:12:23.586Z,102658.47
2023-05-13T08:13:25.788Z,102656.78
2023-05-13T08:14:27.694Z,102662.19
2023-05-13T08:15:29.619Z,102665.75
2023-05-13T08:16:31.556Z,102657.66
2023-05-13T08:17:35.061Z,102665.59
2023-05-13T08:18:36.887Z,102662.91
2023-05-13T08:19:38.689Z,102648.53
2023-05-13T08:20:41.190Z,102653.94
2023-05-13T08:21:43.093Z,102654.78
2023-05-13T08:22:44.864Z,102661.06
2023-05-13T08:23:46.734Z,102649.38
2023-05-13T08:24:48.497Z,102655.66
2023-05-13T08:25:50.294Z,102661.06
2023-05-13T08:26:52.096Z,102654.78
2023-05-13T08:27:53.872Z,102656.50
2023-05-13T08:28:57.218Z,102654.78
2023-05-13T08:29:59.010Z,102661.91
2023-05-13T08:31:03.377Z,102646.13
2023-05-13T08:32:05.953Z,102651.94
2023-05-13T08:33:08.427Z,102647.66
2023-05-13T08:34:13.046Z,102650.25
2023-05-13T08:35:14.913Z,102651.78
2023-05-13T08:36:17.174Z,102652.78
2023-05-13T08:37:19.074Z,102655.50
2023-05-13T08:38:20.850Z,102662.59
2023-05-13T08:39:22.847Z,102657.34
2023-05-13T08:40:24.725Z,102661.78
2023-05-13T08:41:26.656Z,102656.50
2023-05-13T08:42:32.200Z,102659.19
2023-05-13T08:43:34.460Z,102663.59
2023-05-13T08:44:40.065Z,102655.50
2023-05-13T08:45:46.667Z,102652.78
2023-05-13T08:46:58.731Z,102657.19
2023-05-13T08:49:04.333Z,102662.47
2023-05-13T08:50:07.232Z,102663.47
2023-05-13T08:51:09.960Z,102667.00
2023-05-13T08:52:12.052Z,102667.00
2023-05-13T08:53:13.930Z,102656.50
2023-05-13T08:54:17.011Z,102662.75
2023-05-13T08:55:19.560Z,102656.50
2023-05-13T08:56:28.343Z,102666.31
2023-05-13T08:57:30.564Z,102668.00
2023-05-13T08:58:32.324Z,102669.00
2023-05-13T08:59:34.103Z,102663.59
2023-05-13T09:00:36.225Z,102659.19
2023-05-13T09:01:38.548Z,102656.66
2023-05-13T09:02:41.962Z,102662.91
2023-05-13T09:03:55.356Z,102658.19
2023-05-13T09:05:00.298Z,102662.59
2023-05-13T09:06:03.307Z,102660.78
2023-05-13T09:07:05.828Z,102658.19
2023-05-13T09:08:09.696Z,102662.75
2023-05-13T09:09:11.728Z,102662.59
2023-05-13T09:10:13.727Z,102650.53
2023-05-13T09:11:16.414Z,102655.66
2023-05-13T09:12:49.287Z,102660.47
2023-05-13T09:14:02.769Z,102652.91
2023-05-13T09:15:09.816Z,102652.19
2023-05-13T09:16:14.302Z,102656.91
2023-05-13T09:17:16.180Z,102653.38
2023-05-13T09:18:19.362Z,102654.50
2023-05-13T09:19:24.260Z,102653.06
2023-05-13T09:20:26.786Z,102659.06
2023-05-13T09:21:31.742Z,102654.78
2023-05-13T09:22:33.704Z,102659.19
2023-05-13T09:23:35.961Z,102661.06
2023-05-13T09:24:37.743Z,102669.00
2023-05-13T09:25:40.326Z,102654.78
2023-05-13T09:26:42.331Z,102662.91
2023-05-13T09:27:48.898Z,102655.78
2023-05-13T09:29:19.835Z,102654.19
2023-05-13T09:30:21.892Z,102652.19
2023-05-13T09:31:33.798Z,102651.50
2023-05-13T09:32:35.779Z,102657.91
2023-05-13T09:33:38.228Z,102654.50
2023-05-13T09:34:40.075Z,102657.34
2023-05-13T09:35:41.917Z,102650.25
2023-05-13T09:36:43.749Z,102650.25
2023-05-13T09:37:49.396Z,102645.50
2023-05-13T09:38:55.258Z,102657.50
2023-05-13T09:39:57.075Z,102659.19
2023-05-13T09:41:00.855Z,102662.91
2023-05-13T09:42:04.878Z,102654.78
2023-05-13T09:43:08.274Z,102655.78
2023-05-13T09:44:12.370Z,102647.66
2023-05-13T09:45:16.315Z,102647.66
2023-05-13T09:46:18.237Z,102649.38
2023-05-13T09:47:20.109Z,102644.97
2023-05-13T09:48:24.992Z,102642.25
2023-05-13T09:49:26.975Z,102643.97
2023-05-13T09:50:28.839Z,102648.53
2023-05-13T09:51:31.533Z,102639.72
2023-05-13T09:52:34.469Z,102640.53
2023-05-13T09:53:36.331Z,102642.25
2023-05-13T09:54:38.833Z,102642.25
2023-05-13T09:55:46.435Z,102647.81
2023-05-13T09:56:48.910Z,102636.72
2023-05-13T09:57:53.184Z,102636.84
2023-05-13T09:58:55.701Z,102621.44
2023-05-13T10:00:04.812Z,102634.13
2023-05-13T10:01:12.576Z,102640.97
2023-05-13T10:02:16.551Z,102634.13
2023-05-13T10:03:18.410Z,102633.13
2023-05-13T10:04:20.354Z,102640.41
2023-05-13T10:05:23.732Z,102627.03
2023-05-13T10:06:29.909Z,102623.88
2023-05-13T10:07:34.728Z,102628.72
2023-05-13T10:08:38.816Z,102626.19
2023-05-13T10:09:42.781Z,102627.72
2023-05-13T10:10:46.324Z,102626.03
2023-05-13T10:11:48.583Z,102628.59
2023-05-13T10:12:51.756Z,102622.47
2023-05-13T10:13:59.396Z,102618.91
2023-05-13T10:15:02.885Z,102625.03
2023-05-13T10:16:05.157Z,102620.47
2023-05-13T10:17:08.173Z,102608.38
2023-05-13T10:18:10.732Z,102624.03
2023-05-13T10:19:13.119Z,102615.19
2023-05-13T10:20:15.368Z,102609.09
2023-05-13T10:21:18.564Z,102620.63
2023-05-13T10:22:39.072Z,102603.78
2023-05-13T10:23:41.592Z,102609.78
2023-05-13T10:24:43.557Z,102613.91
2023-05-13T10:25:47.869Z,102613.22
2023-05-13T10:26:52.846Z,102613.22
2023-05-13T10:27:57.828Z,102606.97
2023-05-13T10:29:00.597Z,102611.22
2023-05-13T10:30:04.023Z,102599.53
2023-05-13T10:31:05.987Z,102599.13
2023-05-13T10:32:08.969Z,102600.97
2023-05-13T10:33:11.070Z,102611.22
2023-05-13T10:34:13.272Z,102604.97
2023-05-13T10:35:18.770Z,102609.50
2023-05-13T10:36:42.755Z,102612.06
2023-05-13T10:37:59.497Z,102602.25
2023-05-13T10:39:23.640Z,102604.06
2023-05-13T10:40:47.006Z,102606.91
2023-05-13T10:42:20.792Z,102603.78
2023-05-13T10:43:25.292Z,102599.78
2023-05-13T10:44:27.605Z,102600.25
2023-05-13T10:45:33.445Z,102587.84
2023-05-13T10:46:35.699Z,102593.38
2023-05-13T10:47:38.406Z,102598.09
2023-05-13T10:48:43.283Z,102607.22
2023-05-13T10:49:52.183Z,102602.66
2023-05-13T10:51:03.054Z,102603.50
2023-05-13T10:52:12.167Z,102598.78
2023-05-13T10:53:22.519Z,102604.94
2023-05-13T10:54:25.010Z,102598.66
2023-05-13T10:55:27.451Z,102582.31
2023-05-13T10:56:29.226Z,102596.09
2023-05-13T10:57:40.026Z,102593.38
2023-05-13T10:58:41.910Z,102591.56
2023-05-13T11:00:15.934Z,102598.38
2023-05-13T11:01:28.310Z,102593.53
2023-05-13T11:02:31.894Z,102591.41
2023-05-13T11:03:34.141Z,102587.13
2023-05-13T11:05:01.617Z,102592.66
2023-05-13T11:06:18.661Z,102595.25
2023-05-13T11:07:20.900Z,102596.25
2023-05-13T11:08:43.587Z,102590.97
2023-05-13T11:09:50.522Z,102588.41
2023-05-13T11:10:55.343Z,102595.66
2023-05-13T11:11:59.422Z,102591.25
2023-05-13T11:13:16.317Z,102595.53
2023-05-13T11:14:22.817Z,102587.53
2023-05-13T11:15:24.680Z,102585.00
2023-05-13T11:16:26.546Z,102572.47
2023-05-13T11:17:31.241Z,102585.28
2023-05-13T11:18:35.035Z,102578.16
2023-05-13T11:19:38.917Z,102578.88
2023-05-13T11:20:51.485Z,102578.03
2023-05-13T11:21:58.161Z,102567.91
2023-05-13T11:23:01.017Z,102569.03
2023-05-13T11:24:05.916Z,102580.59
2023-05-13T11:25:10.062Z,102574.44
2023-05-13T11:26:16.297Z,102570.78
2023-05-13T11:27:21.723Z,102572.47
2023-05-13T11:28:53.310Z,102577.13
2023-05-13T11:29:56.401Z,102570.19
2023-05-13T11:31:16.190Z,102576.13
2023-05-13T11:33:02.810Z,102573.00
2023-05-13T11:34:14.524Z,102578.09
2023-05-13T11:35:20.924Z,102580.41
2023-05-13T11:36:30.924Z,102582.41
2023-05-13T11:37:33.189Z,102584.41
2023-05-13T11:38:34.985Z,102583.31
2023-05-13T11:39:40.738Z,102595.81
2023-05-13T11:40:43.106Z,102586.72
2023-05-13T11:41:50.353Z,102595.81
2023-05-13T11:42:52.972Z,102580.16
2023-05-13T11:43:55.401Z,102590.41
2023-05-13T11:44:57.618Z,102593.13
2023-05-13T11:46:00.922Z,102594.13
2023-05-13T11:47:08.132Z,102588.72
2023-05-13T11:48:20.365Z,102593.81
2023-05-13T11:49:44.814Z,102591.53
2023-05-13T11:50:46.647Z,102594.22
2023-05-13T11:51:48.568Z,102588.41
2023-05-13T11:52:52.808Z,102595.81
2023-05-13T11:54:04.629Z,102593.97
2023-05-13T11:55:07.176Z,102594.66
2023-05-13T11:56:11.088Z,102579.44
2023-05-13T11:57:32.851Z,102593.81
2023-05-13T11:58:34.696Z,102588.13
2023-05-13T11:59:47.578Z,102591.13
2023-05-13T12:00:50.262Z,102584.44
2023-05-13T12:02:02.184Z,102596.53
2023-05-13T12:03:11.764Z,102592.81
2023-05-13T12:04:13.695Z,102596.38
2023-05-13T12:05:15.541Z,102597.53
2023-05-13T12:06:18.454Z,102590.69
2023-05-13T12:07:29.109Z,102589.97
2023-05-13T12:08:31.004Z,102587.00
2023-05-13T12:09:32.794Z,102597.66
2023-05-13T12:10:34.718Z,102597.84
2023-05-13T12:11:37.382Z,102596.97